Terminal Aerodrome Forecast
Issued by NWS Grand Forks, ND

Home | Current Version | Previous Version | Text Only | Print | Product List | Glossary Off
Versions: 1 2 3 4 5 6 7 8 9 10 11 12 13 14 15 16 17 18 19

000
FTUS43 KFGF 211700
TAFFAR
TAF
KFAR 211729Z 2118/2218 33018G26KT P6SM BKN030
     FM212000 34018KT P6SM SCT040
     FM220100 35008KT P6SM SKC=

USA.gov is the U.S. government's official web portal to all federal, state and local government web resources and services.